地図

経路データ

SID SEASON NUMBER BASIN SUBBASIN NAME ISO_TIME NATURE LAT LON WMO_WIND WMO_PRES WMO_AGENCY TRACK_TYPE DIST2LAND LANDFALL IFLAG USA_AGENCY USA_ATCF_ID USA_LAT USA_LON USA_RECORD USA_STATUS USA_WIND USA_PRES USA_SSHS USA_R34_NE USA_R34_SE USA_R34_SW USA_R34_NW USA_R50_NE USA_R50_SE USA_R50_SW USA_R50_NW USA_R64_NE USA_R64_SE USA_R64_SW USA_R64_NW USA_POCI USA_ROCI USA_RMW USA_EYE TOKYO_LAT TOKYO_LON TOKYO_GRADE TOKYO_WIND TOKYO_PRES TOKYO_R50_DIR TOKYO_R50_LONG TOKYO_R50_SHORT TOKYO_R30_DIR TOKYO_R30_LONG TOKYO_R30_SHORT TOKYO_LAND CMA_LAT CMA_LON CMA_CAT CMA_WIND CMA_PRES HKO_LAT HKO_LON HKO_CAT HKO_WIND HKO_PRES NEWDELHI_LAT NEWDELHI_LON NEWDELHI_GRADE NEWDELHI_WIND NEWDELHI_PRES NEWDELHI_CI NEWDELHI_DP NEWDELHI_POCI REUNION_LAT REUNION_LON REUNION_TYPE REUNION_WIND REUNION_PRES REUNION_TNUM REUNION_CI REUNION_RMW REUNION_R34_NE REUNION_R34_SE REUNION_R34_SW REUNION_R34_NW REUNION_R50_NE REUNION_R50_SE REUNION_R50_SW REUNION_R50_NW REUNION_R64_NE REUNION_R64_SE REUNION_R64_SW REUNION_R64_NW BOM_LAT BOM_LON BOM_TYPE BOM_WIND BOM_PRES BOM_TNUM BOM_CI BOM_RMW BOM_R34_NE BOM_R34_SE BOM_R34_SW BOM_R34_NW BOM_R50_NE BOM_R50_SE BOM_R50_SW BOM_R50_NW BOM_R64_NE BOM_R64_SE BOM_R64_SW BOM_R64_NW BOM_ROCI BOM_POCI BOM_EYE BOM_POS_METHOD BOM_PRES_METHOD NADI_LAT NADI_LON NADI_CAT NADI_WIND NADI_PRES WELLINGTON_LAT WELLINGTON_LON WELLINGTON_WIND WELLINGTON_PRES DS824_LAT DS824_LON DS824_STAGE DS824_WIND DS824_PRES TD9636_LAT TD9636_LON TD9636_STAGE TD9636_WIND TD9636_PRES TD9635_LAT TD9635_LON TD9635_WIND TD9635_PRES TD9635_ROCI NEUMANN_LAT NEUMANN_LON NEUMANN_CLASS NEUMANN_WIND NEUMANN_PRES MLC_LAT MLC_LON MLC_CLASS MLC_WIND MLC_PRES USA_GUST BOM_GUST BOM_GUST_PER REUNION_GUST REUNION_GUST_PER USA_SEAHGT USA_SEARAD_NE USA_SEARAD_SE USA_SEARAD_SW USA_SEARAD_NW STORM_SPEED STORM_DIR
1996247S09084 1997 77 SI MM NOT_NAMED 1996-09-02 18:00:00 TS -8.80000 84.2000 main 1694 1692 O___________O_ jtwc_sh SH031997 -8.80000 84.2000 20 -1 -8.80000 84.2000 TC 20 2 243
1996247S09084 1997 77 SI MM NOT_NAMED 1996-09-02 21:00:00 TS -8.85001 84.1000 main 1703 1700 P___________P_ SH031997 -8.85001 84.1000 20 -1 -8.85001 84.1000 TC 20 2 243
1996247S09084 1997 77 SI MM NOT_NAMED 1996-09-03 00:00:00 TS -8.90000 84.0000 main 1700 1698 O___________O_ jtwc_sh SH031997 -8.90000 84.0000 20 -1 -8.90000 84.0000 TC 20 2 243
1996247S09084 1997 77 SI MM NOT_NAMED 1996-09-03 03:00:00 TS -8.95000 83.9000 main 1698 1698 P___________P_ SH031997 -8.95000 83.9000 20 -1 -8.95000 83.9000 TC 20 2 243
1996247S09084 1997 77 SI MM NOT_NAMED 1996-09-03 06:00:00 TS -9.00000 83.8000 main 1706 1704 O___________O_ jtwc_sh SH031997 -9.00000 83.8000 20 -1 -9.00000 83.8000 TC 20 2 243
1996247S09084 1997 77 SI MM NOT_NAMED 1996-09-03 09:00:00 TS -9.05000 83.7000 main 1704 1704 P___________P_ SH031997 -9.05000 83.7000 20 -1 -9.05000 83.7000 TC 20 2 243
1996247S09084 1997 77 SI MM NOT_NAMED 1996-09-03 12:00:00 TS -9.10000 83.6000 main 1713 1711 O___________O_ jtwc_sh SH031997 -9.10000 83.6000 20 -1 -9.10000 83.6000 TC 20 2 243
1996247S09084 1997 77 SI MM NOT_NAMED 1996-09-03 15:00:00 TS -9.15000 83.5000 main 1711 1711 P___________P_ SH031997 -9.15000 83.5000 22 -1 -9.15000 83.5000 TC 22 2 243
1996247S09084 1997 77 SI MM NOT_NAMED 1996-09-03 18:00:00 TS -9.20000 83.4000 main 1720 1718 O___________O_ jtwc_sh SH031997 -9.20000 83.4000 25 -1 -9.20000 83.4000 TC 25 2 242
1996247S09084 1997 77 SI MM NOT_NAMED 1996-09-03 21:00:00 TS -9.24999 83.3075 main 1718 1718 P___________P_ SH031997 -9.24999 83.3075 25 -1 -9.24999 83.3075 TC 25 2 243
1996247S09084 1997 77 SI MM NOT_NAMED 1996-09-04 00:00:00 TS -9.30000 83.2000 main 1727 1725 O___________O_ jtwc_sh SH031997 -9.30000 83.2000 25 -1 -9.30000 83.2000 TC 25 3 247
1996247S09084 1997 77 SI MM NOT_NAMED 1996-09-04 03:00:00 TS -9.34999 83.0650 main 1725 1725 P___________P_ SH031997 -9.34999 83.0650 25 -1 -9.34999 83.0650 TC 25 3 251
1996247S09084 1997 77 SI MM NOT_NAMED 1996-09-04 06:00:00 TS -9.40000 82.9000 main 1733 1730 O___________O_ jtwc_sh SH031997 -9.40000 82.9000 25 -1 -9.40000 82.9000 TC 25 4 254
1996247S09084 1997 77 SI MM NOT_NAMED 1996-09-04 09:00:00 TS -9.45000 82.7075 main 1730 1730 P___________P_ SH031997 -9.45000 82.7075 25 -1 -9.45000 82.7075 TC 25 4 256
1996247S09084 1997 77 SI MM NOT_NAMED 1996-09-04 12:00:00 TS -9.50000 82.5000 main 1738 1735 O___________O_ jtwc_sh SH031997 -9.50000 82.5000 25 -1 -9.50000 82.5000 TC 25 4 255
1996247S09084 1997 77 SI MM NOT_NAMED 1996-09-04 15:00:00 TS -9.55748 82.3075 main 1747 1744 P___________P_ SH031997 -9.55748 82.3075 25 -1 -9.55748 82.3075 TC 25 4 256
1996247S09084 1997 77 SI MM NOT_NAMED 1996-09-04 18:00:00 TS -9.60000 82.1000 main 1744 1742 O___________O_ jtwc_sh SH031997 -9.60000 82.1000 25 -1 -9.60000 82.1000 TC 25 4 262
1996247S09084 1997 77 SI MM NOT_NAMED 1996-09-04 21:00:00 TS -9.62248 81.8650 main 1742 1740 P___________P_ SH031997 -9.62248 81.8650 25 -1 -9.62248 81.8650 TC 25 5 270
1996247S09084 1997 77 SI MM NOT_NAMED 1996-09-05 00:00:00 TS -9.60000 81.6000 main 1740 1727 O___________O_ jtwc_sh SH031997 -9.60000 81.6000 25 -1 -9.60000 81.6000 TC 25 6 280
1996247S09084 1997 77 SI MM NOT_NAMED 1996-09-05 03:00:00 TS -9.52253 81.2925 main 1727 1714 P___________P_ SH031997 -9.52253 81.2925 25 -1 -9.52253 81.2925 TC 25 6 289
1996247S09084 1997 77 SI MM NOT_NAMED 1996-09-05 06:00:00 TS -9.40000 81.0000 main 1714 1703 O___________O_ jtwc_sh SH031997 -9.40000 81.0000 25 -1 -9.40000 81.0000 TC 25 6 299
1996247S09084 1997 77 SI MM NOT_NAMED 1996-09-05 09:00:00 TS -9.24996 80.7850 main 1692 1680 P___________P_ SH031997 -9.24996 80.7850 25 -1 -9.24996 80.7850 TC 25 5 307
1996247S09084 1997 77 SI MM NOT_NAMED 1996-09-05 12:00:00 TS -9.10000 80.6000 main 1680 1669 O___________O_ jtwc_sh SH031997 -9.10000 80.6000 25 -1 -9.10000 80.6000 TC 25 5 304
1996247S09084 1997 77 SI MM NOT_NAMED 1996-09-05 15:00:00 TS -8.99249 80.4000 main 1669 1658 P___________P_ SH031997 -8.99249 80.4000 25 -1 -8.99249 80.4000 TC 25 4 297
1996247S09084 1997 77 SI MM NOT_NAMED 1996-09-05 18:00:00 TS -8.90000 80.2000 main 1658 1648 O___________O_ jtwc_sh SH031997 -8.90000 80.2000 25 -1 -8.90000 80.2000 TC 25 4 297
1996247S09084 1997 77 SI MM NOT_NAMED 1996-09-05 21:00:00 TS -8.79248 80.0075 main 1648 1637 P___________P_ SH031997 -8.79248 80.0075 25 -1 -8.79248 80.0075 TC 25 4 297
1996247S09084 1997 77 SI MM NOT_NAMED 1996-09-06 00:00:00 TS -8.70000 79.8000 main 1638 1628 O___________O_ jtwc_sh SH031997 -8.70000 79.8000 25 -1 -8.70000 79.8000 TC 25 5 289
1996247S09084 1997 77 SI MM NOT_NAMED 1996-09-06 03:00:00 TS -8.64248 79.5650 main 1628 1628 P___________P_ SH031997 -8.64248 79.5650 25 -1 -8.64248 79.5650 TC 25 5 281
1996247S09084 1997 77 SI MM NOT_NAMED 1996-09-06 06:00:00 TS -8.60000 79.3000 main 1631 1623 O___________O_ jtwc_sh SH031997 -8.60000 79.3000 25 -1 -8.60000 79.3000 TC 25 6 280
1996247S09084 1997 77 SI MM NOT_NAMED 1996-09-06 09:00:00 TS -8.54249 79.0075 main 1623 1623 P___________P_ SH031997 -8.54249 79.0075 25 -1 -8.54249 79.0075 TC 25 6 280
1996247S09084 1997 77 SI MM NOT_NAMED 1996-09-06 12:00:00 TS -8.50000 78.7000 main 1627 1627 O___________O_ jtwc_sh SH031997 -8.50000 78.7000 25 -1 -8.50000 78.7000 TC 25 6 276
1996247S09084 1997 77 SI MM NOT_NAMED 1996-09-06 15:00:00 TS -8.48496 78.4075 main 1631 1631 P___________P_ SH031997 -8.48496 78.4075 27 -1 -8.48496 78.4075 TC 27 6 270
1996247S09084 1997 77 SI MM NOT_NAMED 1996-09-06 18:00:00 TS -8.50000 78.1000 main 1637 1637 O___________O_ jtwc_sh SH031997 -8.50000 78.1000 30 -1 -8.50000 78.1000 TC 30 6 265
1996247S09084 1997 77 SI MM NOT_NAMED 1996-09-06 21:00:00 TS -8.54247 77.7650 main 1643 1643 P___________P_ SH031997 -8.54247 77.7650 32 -1 -8.54247 77.7650 TC 32 7 262
1996247S09084 1997 77 SI MM NOT_NAMED 1996-09-07 00:00:00 TS -8.60000 77.4000 main 1663 1663 O___________O_ jtwc_sh SH031997 -8.60000 77.4000 35 0 -8.60000 77.4000 TC 35 8 261
1996247S09084 1997 77 SI MM NOT_NAMED 1996-09-07 03:00:00 TS -8.65748 77.0075 main 1684 1684 P___________P_ SH031997 -8.65748 77.0075 37 0 -8.65748 77.0075 TC 37 8 263
1996247S09084 1997 77 SI MM NOT_NAMED 1996-09-07 06:00:00 TS -8.70000 76.6000 main 1695 1695 O___________O_ jtwc_sh SH031997 -8.70000 76.6000 40 0 -8.70000 76.6000 TC 40 8 266
1996247S09084 1997 77 SI MM NOT_NAMED 1996-09-07 09:00:00 TS -8.70746 76.2000 main 1707 1707 P___________P_ SH031997 -8.70746 76.2000 40 0 -8.70746 76.2000 TC 40 8 270
1996247S09084 1997 77 SI MM NOT_NAMED 1996-09-07 12:00:00 TS -8.70000 75.8000 main 1720 1720 O___________O_ jtwc_sh SH031997 -8.70000 75.8000 40 0 -8.70000 75.8000 TC 40 8 270
1996247S09084 1997 77 SI MM NOT_NAMED 1996-09-07 15:00:00 TS -8.70743 75.4075 main 1734 1734 P___________P_ SH031997 -8.70743 75.4075 37 0 -8.70743 75.4075 TC 37 8 270
1996247S09084 1997 77 SI MM NOT_NAMED 1996-09-07 18:00:00 TS -8.70000 75.0000 main 1749 1749 O___________O_ jtwc_sh SH031997 -8.70000 75.0000 35 0 -8.70000 75.0000 TC 35 8 273
1996247S09084 1997 77 SI MM NOT_NAMED 1996-09-07 21:00:00 TS -8.66494 74.5650 main 1764 1762 P___________P_ SH031997 -8.66494 74.5650 35 0 -8.66494 74.5650 TC 35 9 276
1996247S09084 1997 77 SI MM NOT_NAMED 1996-09-08 00:00:00 TS -8.60000 74.1000 main 1774 1774 O___________O_ jtwc_sh SH031997 -8.60000 74.1000 35 0 -8.60000 74.1000 TC 35 10 280
1996247S09084 1997 77 SI MM NOT_NAMED 1996-09-08 03:00:00 TS -8.49999 73.6000 main 1786 1786 P___________P_ SH031997 -8.49999 73.6000 35 0 -8.49999 73.6000 TC 35 10 281
1996247S09084 1997 77 SI MM NOT_NAMED 1996-09-08 06:00:00 TS -8.40000 73.1000 main 1800 1800 O___________O_ jtwc_sh SH031997 -8.40000 73.1000 35 0 -8.40000 73.1000 TC 35 10 280
1996247S09084 1997 77 SI MM NOT_NAMED 1996-09-08 09:00:00 TS -8.33492 72.6425 main 1816 1816 P___________P_ SH031997 -8.33492 72.6425 35 0 -8.33492 72.6425 TC 35 9 276
1996247S09084 1997 77 SI MM NOT_NAMED 1996-09-08 12:00:00 TS -8.30000 72.2000 main 1837 1837 O___________O_ jtwc_sh SH031997 -8.30000 72.2000 35 0 -8.30000 72.2000 TC 35 9 273
1996247S09084 1997 77 SI MM NOT_NAMED 1996-09-08 15:00:00 TS -8.29245 71.7500 main 1859 1859 P___________P_ SH031997 -8.29245 71.7500 35 0 -8.29245 71.7500 TC 35 9 270
1996247S09084 1997 77 SI MM NOT_NAMED 1996-09-08 18:00:00 TS -8.30000 71.3000 main 1888 1888 O___________O_ jtwc_sh SH031997 -8.30000 71.3000 35 0 -8.30000 71.3000 TC 35 9 270
1996247S09084 1997 77 SI MM NOT_NAMED 1996-09-08 21:00:00 TS -8.29997 70.8425 main 1918 1900 P___________P_ SH031997 -8.29997 70.8425 32 -1 -8.29997 70.8425 TC 32 9 270
1996247S09084 1997 77 SI MM NOT_NAMED 1996-09-09 00:00:00 TS -8.30000 70.4000 main 1900 1869 O___________O_ jtwc_sh SH031997 -8.30000 70.4000 30 -1 -8.30000 70.4000 TC 30 8 270
1996247S09084 1997 77 SI MM NOT_NAMED 1996-09-09 03:00:00 TS -8.29996 69.9850 main 1869 1839 P___________P_ SH031997 -8.29996 69.9850 30 -1 -8.29996 69.9850 TC 30 8 270
1996247S09084 1997 77 SI MM NOT_NAMED 1996-09-09 06:00:00 TS -8.30000 69.6000 main 1839 1817 O___________O_ jtwc_sh SH031997 -8.30000 69.6000 30 -1 -8.30000 69.6000 TC 30 7 270
1996247S09084 1997 77 SI MM NOT_NAMED 1996-09-09 09:00:00 TS -8.29995 69.2425 main 1810 1788 P___________P_ SH031997 -8.29995 69.2425 30 -1 -8.29995 69.2425 TC 30 7 270
1996247S09084 1997 77 SI MM NOT_NAMED 1996-09-09 12:00:00 TS -8.30000 68.9000 main 1788 1766 O___________O_ jtwc_sh SH031997 -8.30000 68.9000 30 -1 -8.30000 68.9000 TC 30 7 270
1996247S09084 1997 77 SI MM NOT_NAMED 1996-09-09 15:00:00 TS -8.30007 68.5525 main 1766 1738 P___________P_ SH031997 -8.30007 68.5525 27 -1 -8.30007 68.5525 TC 27 7 270
1996247S09084 1997 77 SI MM NOT_NAMED 1996-09-09 18:00:00 TS -8.30000 68.2000 main 1738 O___________O_ jtwc_sh SH031997 -8.30000 68.2000 25 -1 -8.30000 68.2000 TC 25 7 270

IBTrACS Databaseについて

本データベースは、米国NOAAが公開する1842年以降の世界の熱帯低気圧のベストトラックデータアーカイブInternational Best Track Archive for Climate Stewardship (IBTrACS)を、ウェブで閲覧しやすい形式に変換したものです。

最終更新日:2021-12-01